createdAt,value
2019-05-14T00:01:05.186Z,7.73
2019-05-14T00:03:35.673Z,7.73
2019-05-14T00:06:05.975Z,7.74
2019-05-14T00:08:36.543Z,7.70
2019-05-14T00:11:07.080Z,7.70
2019-05-14T00:13:37.257Z,7.69
2019-05-14T00:16:07.458Z,7.64
2019-05-14T00:18:37.636Z,7.61
2019-05-14T00:21:08.182Z,7.65
2019-05-14T00:23:38.355Z,7.64
2019-05-14T00:26:08.908Z,7.62
2019-05-14T00:28:39.198Z,7.55
2019-05-14T00:31:09.402Z,7.46
2019-05-14T00:33:41.934Z,7.35
2019-05-14T00:36:13.990Z,7.21
2019-05-14T00:38:44.151Z,7.21
2019-05-14T00:41:14.637Z,7.19
2019-05-14T00:43:44.801Z,7.30
2019-05-14T00:46:15.003Z,7.18
2019-05-14T00:48:45.512Z,7.25
2019-05-14T00:51:15.717Z,7.33
2019-05-14T00:53:45.902Z,7.26
2019-05-14T00:56:16.092Z,7.31
2019-05-14T00:58:46.271Z,7.30
2019-05-14T01:01:16.473Z,7.30
2019-05-14T01:03:46.652Z,7.24
2019-05-14T01:06:18.327Z,7.22
2019-05-14T01:08:48.835Z,7.20
2019-05-14T01:11:19.039Z,7.07
2019-05-14T01:13:49.217Z,6.92
2019-05-14T01:16:19.806Z,6.90
2019-05-14T01:18:51.332Z,7.05
2019-05-14T01:21:22.052Z,7.22
2019-05-14T01:23:52.280Z,7.22
2019-05-14T01:26:22.475Z,7.23
2019-05-14T01:28:53.068Z,7.25
2019-05-14T01:31:23.277Z,7.16
2019-05-14T01:33:53.458Z,7.25
2019-05-14T01:36:23.656Z,7.30
2019-05-14T01:38:53.827Z,7.17
2019-05-14T01:41:25.009Z,6.88
2019-05-14T01:43:55.184Z,6.88
2019-05-14T01:46:26.064Z,6.81
2019-05-14T01:48:56.229Z,6.75
2019-05-14T01:51:26.546Z,6.63
2019-05-14T01:53:58.075Z,6.49
2019-05-14T01:56:28.268Z,6.45
2019-05-14T01:58:58.834Z,6.35
2019-05-14T02:01:31.344Z,6.30
2019-05-14T02:04:02.334Z,6.20
2019-05-14T02:06:33.045Z,6.24
2019-05-14T02:09:04.656Z,6.20
2019-05-14T02:11:34.951Z,6.12
2019-05-14T02:14:05.127Z,6.07
2019-05-14T02:19:36.552Z,5.88
2019-05-14T02:22:06.818Z,5.86
2019-05-14T02:24:37.105Z,5.82
2019-05-14T02:27:07.707Z,5.79
2019-05-14T02:29:37.899Z,5.82
2019-05-14T02:32:10.404Z,5.81
2019-05-14T02:34:40.525Z,5.71
2019-05-14T02:37:10.906Z,5.59
2019-05-14T02:39:41.415Z,5.51
2019-05-14T02:42:11.882Z,5.62
2019-05-14T02:44:42.333Z,5.61
2019-05-14T02:47:12.530Z,5.50
2019-05-14T02:49:42.698Z,5.40
2019-05-14T02:52:12.919Z,5.33
2019-05-14T02:54:43.113Z,5.35
2019-05-14T02:57:13.368Z,5.32
2019-05-14T02:59:43.572Z,5.32
2019-05-14T03:02:14.847Z,5.30
2019-05-14T03:04:45.070Z,5.29
2019-05-14T03:07:15.343Z,5.16
2019-05-14T03:09:45.540Z,5.16
2019-05-14T03:12:15.714Z,5.22
2019-05-14T03:14:49.476Z,5.20
2019-05-14T03:17:19.854Z,5.11
2019-05-14T03:19:50.188Z,4.98
2019-05-14T03:22:26.326Z,4.92
2019-05-14T03:24:52.312Z,4.90
2019-05-14T03:27:22.528Z,4.90
2019-05-14T03:29:52.999Z,4.90
2019-05-14T03:32:23.427Z,4.86
2019-05-14T03:34:54.398Z,4.85
2019-05-14T03:37:24.899Z,4.79
2019-05-14T03:39:55.092Z,4.78
2019-05-14T03:42:25.647Z,4.67
2019-05-14T03:44:59.368Z,4.56
2019-05-14T03:47:29.900Z,4.55
2019-05-14T03:50:02.526Z,4.51
2019-05-14T03:52:33.574Z,4.39
2019-05-14T03:55:05.003Z,4.44
2019-05-14T03:57:35.998Z,4.40
2019-05-14T04:00:10.265Z,4.31
2019-05-14T04:02:40.872Z,4.34
2019-05-14T04:05:11.369Z,4.36
2019-05-14T04:07:42.914Z,4.36
2019-05-14T04:10:13.705Z,4.40
2019-05-14T04:12:49.186Z,4.43
2019-05-14T04:15:20.496Z,4.48
2019-05-14T04:17:51.348Z,4.54
2019-05-14T04:20:23.429Z,4.52
2019-05-14T04:22:53.813Z,4.53
2019-05-14T04:25:25.460Z,4.60
2019-05-14T04:27:59.703Z,4.66
2019-05-14T04:30:32.410Z,4.69
2019-05-14T04:33:05.154Z,4.66
2019-05-14T04:35:59.979Z,4.62
2019-05-14T04:38:30.220Z,4.65
2019-05-14T04:41:04.608Z,4.70
2019-05-14T04:43:35.461Z,4.86
2019-05-14T04:46:09.981Z,4.92
2019-05-14T04:48:42.990Z,5.00
2019-05-14T04:51:10.136Z,5.01
2019-05-14T04:53:41.409Z,5.08
2019-05-14T04:56:12.264Z,5.12
2019-05-14T04:58:42.516Z,5.15
2019-05-14T05:01:13.131Z,5.24
2019-05-14T05:03:44.581Z,5.30
2019-05-14T05:06:14.956Z,5.36
2019-05-14T05:08:45.623Z,5.40
2019-05-14T05:11:18.144Z,5.45
2019-05-14T05:13:48.899Z,5.50
2019-05-14T05:16:19.604Z,5.58
2019-05-14T05:18:50.051Z,5.66
2019-05-14T05:21:20.344Z,5.74
2019-05-14T05:23:50.720Z,5.81
2019-05-14T05:26:21.209Z,5.84
2019-05-14T05:29:03.731Z,5.88
2019-05-14T05:31:24.919Z,5.98
2019-05-14T05:33:55.380Z,6.03
2019-05-14T05:36:28.843Z,6.16
2019-05-14T05:38:59.956Z,6.26
2019-05-14T05:41:30.406Z,6.32
2019-05-14T05:44:00.785Z,6.40
2019-05-14T05:46:31.623Z,6.45
2019-05-14T05:49:02.481Z,6.52
2019-05-14T05:51:33.303Z,6.57
2019-05-14T05:54:03.645Z,6.65
2019-05-14T05:56:34.606Z,6.71
2019-05-14T05:59:05.019Z,6.77
2019-05-14T06:01:42.829Z,6.84
2019-05-14T06:04:08.726Z,6.95
2019-05-14T06:06:39.277Z,7.13
2019-05-14T06:09:09.696Z,7.25
2019-05-14T06:11:40.125Z,7.35
2019-05-14T06:14:10.726Z,7.49
2019-05-14T06:16:41.442Z,7.61
2019-05-14T06:19:11.709Z,7.74
2019-05-14T06:21:43.089Z,7.87
2019-05-14T06:24:21.497Z,8.00
2019-05-14T06:26:52.072Z,8.11
2019-05-14T06:29:22.565Z,8.22
2019-05-14T06:31:53.448Z,8.50
2019-05-14T06:34:24.073Z,8.50
2019-05-14T06:36:59.138Z,8.66
2019-05-14T06:39:30.024Z,8.78
2019-05-14T06:42:00.540Z,8.93
2019-05-14T06:44:31.275Z,9.08
2019-05-14T06:47:02.078Z,9.33
2019-05-14T06:49:32.360Z,9.33
2019-05-14T06:52:03.131Z,9.38
2019-05-14T06:54:33.448Z,9.44
2019-05-14T06:57:04.081Z,9.57
2019-05-14T06:59:34.500Z,9.70
2019-05-14T07:02:08.486Z,9.78
2019-05-14T07:04:39.423Z,9.93
2019-05-14T07:07:10.539Z,10.05
2019-05-14T07:09:41.264Z,10.16
2019-05-14T07:12:11.481Z,10.31
2019-05-14T07:14:41.956Z,10.40
2019-05-14T07:17:12.179Z,10.56
2019-05-14T07:19:42.405Z,10.70
2019-05-14T07:22:12.623Z,10.81
2019-05-14T07:24:42.816Z,11.06
2019-05-14T07:27:13.366Z,11.29
2019-05-14T07:29:44.111Z,11.54
2019-05-14T07:32:14.331Z,11.71
2019-05-14T07:34:44.991Z,11.78
2019-05-14T07:37:18.051Z,12.02
2019-05-14T07:39:48.957Z,12.14
2019-05-14T07:42:19.712Z,12.33
2019-05-14T07:44:49.982Z,12.54
2019-05-14T07:47:20.881Z,12.61
2019-05-14T07:49:51.458Z,12.76
2019-05-14T07:52:21.683Z,12.80
2019-05-14T07:54:52.000Z,12.91
2019-05-14T07:57:22.265Z,13.03
2019-05-14T07:59:52.675Z,13.10
2019-05-14T08:02:22.905Z,13.11
2019-05-14T08:04:53.432Z,13.16
2019-05-14T08:07:23.761Z,13.25
2019-05-14T08:09:54.050Z,13.32
2019-05-14T08:12:24.339Z,13.45
2019-05-14T08:15:13.115Z,13.58
2019-05-14T08:17:28.113Z,13.71
2019-05-14T08:19:58.526Z,13.82
2019-05-14T08:22:29.277Z,13.91
2019-05-14T08:25:00.710Z,13.96
2019-05-14T08:27:32.196Z,14.05
2019-05-14T08:30:02.831Z,14.09
2019-05-14T08:32:33.651Z,14.05
2019-05-14T08:35:04.157Z,14.20
2019-05-14T08:37:34.461Z,14.34
2019-05-14T08:40:05.560Z,14.41
2019-05-14T08:42:37.887Z,14.61
2019-05-14T08:45:12.286Z,14.78
2019-05-14T08:47:40.095Z,14.85
2019-05-14T08:50:11.083Z,14.98
2019-05-14T08:52:41.699Z,15.01
2019-05-14T08:55:14.091Z,15.03
2019-05-14T08:57:44.274Z,15.17
2019-05-14T09:00:18.190Z,14.97
2019-05-14T09:02:48.807Z,15.15
2019-05-14T09:05:19.143Z,15.16
2019-05-14T09:07:49.815Z,15.27
2019-05-14T09:10:21.923Z,15.52
2019-05-14T09:12:53.800Z,15.73
2019-05-14T09:15:24.013Z,16.01
2019-05-14T09:17:54.565Z,16.17
2019-05-14T09:20:24.861Z,16.35
2019-05-14T09:22:55.110Z,16.56
2019-05-14T09:25:25.349Z,16.69
2019-05-14T09:27:58.428Z,16.86
2019-05-14T09:30:28.965Z,16.86
2019-05-14T09:32:59.866Z,16.71
2019-05-14T09:35:30.160Z,16.89
2019-05-14T09:38:00.451Z,17.34
2019-05-14T09:40:31.767Z,17.61
2019-05-14T09:43:02.015Z,18.01
2019-05-14T09:45:32.380Z,18.72
2019-05-14T09:48:03.268Z,18.66
2019-05-14T09:50:33.501Z,19.36
2019-05-14T09:53:03.771Z,19.77
2019-05-14T09:55:34.352Z,19.93
2019-05-14T09:58:05.084Z,20.06
2019-05-14T10:00:35.725Z,20.50
2019-05-14T10:03:09.591Z,21.07
2019-05-14T10:05:38.525Z,21.35
2019-05-14T10:08:09.104Z,21.78
2019-05-14T10:10:40.058Z,22.63
2019-05-14T10:13:10.473Z,21.85
2019-05-14T10:15:40.798Z,21.82
2019-05-14T10:18:12.372Z,20.97
2019-05-14T10:20:45.886Z,20.72
2019-05-14T10:23:14.953Z,20.87
2019-05-14T10:25:45.253Z,20.54
2019-05-14T10:28:15.934Z,21.32
2019-05-14T10:30:48.942Z,21.88
2019-05-14T10:33:18.301Z,21.77
2019-05-14T10:35:48.661Z,22.16
2019-05-14T10:38:19.203Z,22.60
2019-05-14T10:40:50.753Z,23.12
2019-05-14T10:43:21.030Z,22.69
2019-05-14T10:45:51.813Z,22.96
2019-05-14T10:48:22.593Z,23.65
2019-05-14T10:51:02.629Z,23.98
2019-05-14T10:53:28.681Z,24.35
2019-05-14T10:55:58.389Z,24.84
2019-05-14T10:58:29.219Z,23.75
2019-05-14T11:00:59.816Z,24.90
2019-05-14T11:03:30.424Z,25.12
2019-05-14T11:06:00.852Z,25.27
2019-05-14T11:08:31.088Z,25.26
2019-05-14T11:11:04.622Z,25.53
2019-05-14T11:13:33.574Z,25.10
2019-05-14T11:16:03.837Z,25.29
2019-05-14T11:18:34.086Z,24.99
2019-05-14T11:21:18.781Z,25.24
2019-05-14T11:23:38.701Z,25.84
2019-05-14T11:26:09.310Z,26.91
2019-05-14T11:28:39.751Z,26.93
2019-05-14T11:31:10.333Z,27.02
2019-05-14T11:33:42.570Z,27.83
2019-05-14T11:36:12.843Z,27.48
2019-05-14T11:38:43.119Z,26.30
2019-05-14T11:41:14.426Z,26.30
2019-05-14T11:43:44.631Z,26.22
2019-05-14T11:46:26.172Z,27.10
2019-05-14T11:48:49.855Z,28.40
2019-05-14T11:51:45.779Z,28.93
2019-05-14T11:53:52.205Z,29.07
2019-05-14T11:56:23.444Z,29.28
2019-05-14T11:58:53.753Z,26.22
2019-05-14T12:01:24.501Z,24.88
2019-05-14T12:03:54.807Z,24.90
2019-05-14T12:06:25.051Z,27.14
2019-05-14T12:08:58.131Z,29.51
2019-05-14T12:11:29.076Z,29.95
2019-05-14T12:13:59.988Z,29.05
2019-05-14T12:16:30.484Z,29.83
2019-05-14T12:19:01.025Z,28.95
2019-05-14T12:21:31.662Z,28.44
2019-05-14T12:24:05.230Z,27.77
2019-05-14T12:26:34.173Z,27.39
2019-05-14T12:29:04.375Z,28.42
2019-05-14T12:31:34.693Z,27.86
2019-05-14T12:34:04.966Z,27.80
2019-05-14T12:36:35.228Z,28.96
2019-05-14T12:39:09.637Z,28.97
2019-05-14T12:41:40.054Z,28.15
2019-05-14T12:44:10.339Z,29.97
2019-05-14T12:46:40.604Z,30.81
2019-05-14T12:49:11.725Z,29.67
2019-05-14T12:51:42.888Z,29.68
2019-05-14T12:54:13.319Z,31.62
2019-05-14T12:56:44.030Z,31.71
2019-05-14T12:59:14.387Z,33.19
2019-05-14T13:01:45.022Z,33.92
2019-05-14T13:04:15.317Z,31.65
2019-05-14T13:06:48.195Z,30.94
2019-05-14T13:09:21.379Z,32.51
2019-05-14T13:11:49.732Z,31.93
2019-05-14T13:14:19.975Z,31.00
2019-05-14T13:16:50.239Z,32.33
2019-05-14T13:19:20.451Z,33.46
2019-05-14T13:22:08.751Z,32.92
2019-05-14T13:24:22.683Z,30.32
2019-05-14T13:26:52.973Z,29.00
2019-05-14T13:29:23.180Z,31.44
2019-05-14T13:31:53.417Z,32.58
2019-05-14T13:34:23.686Z,34.24
2019-05-14T13:36:53.971Z,33.86
2019-05-14T13:39:24.300Z,32.79
2019-05-14T13:41:54.614Z,32.31
2019-05-14T13:44:25.334Z,33.58
2019-05-14T13:46:55.576Z,32.76
2019-05-14T13:49:25.836Z,34.05
2019-05-14T13:51:56.132Z,33.95
2019-05-14T13:54:31.633Z,34.76
2019-05-14T13:56:58.957Z,33.94
2019-05-14T13:59:29.208Z,34.26
2019-05-14T14:01:59.497Z,34.74
2019-05-14T14:04:29.722Z,33.62
2019-05-14T14:07:00.478Z,29.68
2019-05-14T14:09:31.594Z,30.33
2019-05-14T14:12:01.993Z,31.40
2019-05-14T14:14:32.401Z,33.88
2019-05-14T14:17:03.453Z,30.86
2019-05-14T14:19:33.835Z,28.32
2019-05-14T14:22:04.562Z,31.61
2019-05-14T14:24:34.880Z,29.73
2019-05-14T14:27:05.209Z,28.85
2019-05-14T14:29:35.597Z,32.97
2019-05-14T14:32:11.120Z,34.80
2019-05-14T14:34:41.312Z,35.06
2019-05-14T14:37:10.207Z,36.57
2019-05-14T14:39:40.465Z,36.55
2019-05-14T14:42:10.788Z,30.08
2019-05-14T14:44:41.108Z,24.64
2019-05-14T14:47:12.450Z,23.88
2019-05-14T14:49:44.042Z,23.76
2019-05-14T14:52:14.608Z,22.61
2019-05-14T14:54:45.284Z,24.47
2019-05-14T14:57:19.525Z,24.51
2019-05-14T14:59:48.668Z,25.54
2019-05-14T15:02:19.881Z,29.46
2019-05-14T15:04:50.462Z,28.74
2019-05-14T15:07:20.852Z,32.23
2019-05-14T15:09:51.240Z,30.21
2019-05-14T15:12:21.519Z,28.53
2019-05-14T15:14:51.831Z,30.58
2019-05-14T15:17:22.086Z,33.78
2019-05-14T15:19:52.643Z,29.31
2019-05-14T15:22:22.937Z,26.17
2019-05-14T15:24:53.248Z,24.25
2019-05-14T15:27:24.593Z,22.56
2019-05-14T15:29:54.830Z,21.35
2019-05-14T15:32:25.515Z,21.00
2019-05-14T15:34:55.879Z,20.63
2019-05-14T15:37:28.651Z,19.98
2019-05-14T15:39:58.339Z,20.07
2019-05-14T15:42:28.808Z,19.79
2019-05-14T15:44:59.945Z,20.90
2019-05-14T15:47:30.762Z,20.73
2019-05-14T15:50:01.175Z,20.58
2019-05-14T15:52:31.543Z,20.75
2019-05-14T15:55:01.964Z,21.38
2019-05-14T15:57:32.330Z,21.77
2019-05-14T16:00:03.075Z,25.82
2019-05-14T16:02:33.596Z,29.94
2019-05-14T16:05:04.062Z,32.40
2019-05-14T16:07:39.070Z,32.00
2019-05-14T16:10:09.763Z,33.04
2019-05-14T16:12:40.373Z,32.58
2019-05-14T16:15:11.197Z,30.05
2019-05-14T16:17:50.692Z,26.96
2019-05-14T16:20:14.045Z,23.64
2019-05-14T16:22:44.449Z,22.00
2019-05-14T16:25:15.070Z,22.12
2019-05-14T16:27:45.326Z,22.96
2019-05-14T16:30:15.981Z,21.53
2019-05-14T16:32:48.491Z,19.77
2019-05-14T16:35:21.318Z,19.14
2019-05-14T16:37:50.819Z,18.62
2019-05-14T16:40:21.081Z,18.62
2019-05-14T16:42:51.333Z,18.54
2019-05-14T16:45:21.646Z,18.36
2019-05-14T16:47:52.135Z,18.14
2019-05-14T16:50:22.469Z,20.33
2019-05-14T16:52:53.055Z,24.05
2019-05-14T16:55:27.237Z,27.10
2019-05-14T16:57:55.428Z,29.28
2019-05-14T17:00:25.843Z,24.10
2019-05-14T17:02:56.130Z,24.10
2019-05-14T17:05:29.939Z,21.75
2019-05-14T17:07:58.998Z,19.90
2019-05-14T17:10:29.265Z,18.65
2019-05-14T17:13:01.826Z,17.92
2019-05-14T17:15:33.274Z,17.43
2019-05-14T17:18:04.526Z,17.14
2019-05-14T17:20:34.966Z,16.89
2019-05-14T17:23:05.892Z,16.64
2019-05-14T17:25:36.104Z,16.62
2019-05-14T17:28:08.515Z,16.66
2019-05-14T17:30:38.918Z,16.71
2019-05-14T17:33:09.737Z,16.63
2019-05-14T17:35:40.319Z,17.66
2019-05-14T17:38:10.716Z,21.06
2019-05-14T17:40:41.061Z,23.52
2019-05-14T17:43:11.876Z,24.17
2019-05-14T17:45:42.311Z,22.85
2019-05-14T17:48:13.727Z,19.88
2019-05-14T17:50:44.855Z,19.88
2019-05-14T17:53:15.189Z,18.83
2019-05-14T17:55:50.061Z,17.84
2019-05-14T17:58:18.914Z,17.13
2019-05-14T18:00:49.563Z,16.62
2019-05-14T18:03:19.788Z,16.14
2019-05-14T18:05:50.396Z,15.84
2019-05-14T18:08:20.729Z,15.59
2019-05-14T18:10:51.360Z,15.31
2019-05-14T18:13:21.926Z,14.97
2019-05-14T18:15:52.532Z,14.72
2019-05-14T18:18:22.712Z,14.59
2019-05-14T18:20:53.000Z,14.43
2019-05-14T18:23:24.390Z,14.21
2019-05-14T18:26:04.999Z,14.05
2019-05-14T18:28:28.661Z,13.99
2019-05-14T18:30:58.940Z,13.84
2019-05-14T18:33:31.134Z,13.78
2019-05-14T18:36:01.208Z,13.66
2019-05-14T18:38:31.514Z,13.61
2019-05-14T18:41:01.855Z,13.50
2019-05-14T18:43:32.102Z,13.32
2019-05-14T18:46:02.406Z,13.21
2019-05-14T18:48:32.705Z,13.16
2019-05-14T18:51:03.236Z,13.14
2019-05-14T18:53:34.449Z,12.86
2019-05-14T18:56:17.418Z,12.69
2019-05-14T18:58:38.706Z,12.58
2019-05-14T19:01:08.808Z,12.48
2019-05-14T19:03:39.907Z,12.41
2019-05-14T19:06:10.286Z,12.29
2019-05-14T19:08:40.635Z,12.19
2019-05-14T19:11:10.974Z,12.14
2019-05-14T19:13:41.272Z,12.05
2019-05-14T19:16:11.499Z,11.86
2019-05-14T19:18:41.856Z,11.83
2019-05-14T19:21:12.335Z,11.80
2019-05-14T19:23:45.228Z,11.77
2019-05-14T19:26:14.787Z,11.75
2019-05-14T19:28:45.150Z,11.70
2019-05-14T19:31:15.341Z,11.73
2019-05-14T19:33:45.626Z,11.82
2019-05-14T19:36:16.116Z,11.72
2019-05-14T19:38:48.175Z,11.60
2019-05-14T19:41:20.977Z,11.49
2019-05-14T19:43:50.302Z,11.50
2019-05-14T19:46:20.596Z,11.52
2019-05-14T19:48:50.853Z,11.41
2019-05-14T19:51:21.142Z,11.32
2019-05-14T19:53:52.596Z,11.28
2019-05-14T19:56:23.043Z,11.19
2019-05-14T19:58:53.805Z,11.26
2019-05-14T20:01:24.044Z,11.24
2019-05-14T20:03:54.663Z,11.29
2019-05-14T20:06:24.917Z,11.24
2019-05-14T20:08:55.302Z,11.17
2019-05-14T20:11:25.961Z,11.06
2019-05-14T20:13:59.028Z,10.92
2019-05-14T20:16:29.282Z,11.03
2019-05-14T20:18:59.590Z,10.97
2019-05-14T20:21:31.363Z,10.85
2019-05-14T20:24:01.951Z,10.74
2019-05-14T20:26:32.666Z,10.65
2019-05-14T20:29:03.533Z,10.86
2019-05-14T20:31:33.901Z,10.83
2019-05-14T20:34:08.329Z,10.85
2019-05-14T20:36:39.140Z,10.68
2019-05-14T20:39:10.570Z,10.65
2019-05-14T20:41:41.062Z,10.71
2019-05-14T20:44:11.386Z,10.68
2019-05-14T20:46:41.714Z,10.62
2019-05-14T20:49:12.065Z,10.66
2019-05-14T20:51:42.838Z,10.62
2019-05-14T20:54:13.157Z,10.49
2019-05-14T20:56:43.604Z,10.56
2019-05-14T20:59:13.919Z,10.51
2019-05-14T21:01:44.158Z,10.43
2019-05-14T21:04:14.444Z,10.44
2019-05-14T21:06:44.674Z,10.38
2019-05-14T21:09:15.056Z,10.28
2019-05-14T21:11:45.335Z,10.31
2019-05-14T21:14:15.644Z,10.28
2019-05-14T21:16:48.667Z,10.16
2019-05-14T21:19:19.250Z,10.12
2019-05-14T21:21:49.623Z,10.06
2019-05-14T21:24:21.873Z,10.08
2019-05-14T21:26:51.924Z,10.11
2019-05-14T21:29:23.909Z,10.11
2019-05-14T21:31:54.467Z,9.97
2019-05-14T21:34:24.804Z,10.05
2019-05-14T21:36:55.475Z,10.03
2019-05-14T21:39:25.774Z,10.01
2019-05-14T21:41:58.450Z,10.06
2019-05-14T21:44:28.490Z,10.15
2019-05-14T21:46:59.001Z,10.32
2019-05-14T21:49:30.016Z,10.23
2019-05-14T21:52:00.319Z,10.15
2019-05-14T21:54:31.144Z,10.18
2019-05-14T21:57:01.438Z,10.14
2019-05-14T21:59:31.749Z,10.10
2019-05-14T22:02:02.753Z,10.06
2019-05-14T22:04:33.243Z,10.05
2019-05-14T22:07:03.926Z,9.95
2019-05-14T22:09:34.515Z,9.95
2019-05-14T22:12:04.887Z,9.95
2019-05-14T22:14:37.946Z,9.91
2019-05-14T22:17:09.509Z,9.82
2019-05-14T22:19:39.817Z,9.69
2019-05-14T22:22:10.701Z,9.74
2019-05-14T22:24:41.461Z,9.76
2019-05-14T22:27:14.882Z,9.75
2019-05-14T22:29:45.182Z,9.77
2019-05-14T22:32:15.577Z,9.63
2019-05-14T22:34:48.650Z,9.52
2019-05-14T22:37:20.195Z,9.47
2019-05-14T22:39:50.884Z,9.58
2019-05-14T22:42:28.241Z,9.58
2019-05-14T22:44:58.723Z,9.49
2019-05-14T22:47:29.018Z,9.47
2019-05-14T22:49:59.704Z,9.68
2019-05-14T22:52:31.263Z,9.45
2019-05-14T22:55:03.633Z,9.30
2019-05-14T22:57:34.488Z,9.27
2019-05-14T23:00:05.139Z,9.20
2019-05-14T23:02:38.178Z,8.98
2019-05-14T23:05:08.840Z,8.76
2019-05-14T23:07:39.269Z,8.81
2019-05-14T23:10:10.337Z,8.86
2019-05-14T23:12:40.584Z,8.92
2019-05-14T23:15:10.964Z,8.87
2019-05-14T23:17:41.272Z,8.87
2019-05-14T23:20:11.930Z,8.66
2019-05-14T23:22:42.322Z,8.66
2019-05-14T23:25:12.974Z,8.60
2019-05-14T23:27:43.356Z,8.53
2019-05-14T23:30:13.838Z,8.65
2019-05-14T23:32:44.879Z,8.71
2019-05-14T23:35:15.651Z,8.80
2019-05-14T23:37:48.934Z,8.71
2019-05-14T23:40:19.367Z,8.65
2019-05-14T23:42:49.863Z,8.70
2019-05-14T23:45:21.622Z,8.67
2019-05-14T23:47:52.232Z,8.57
2019-05-14T23:50:22.991Z,8.45
2019-05-14T23:52:53.498Z,8.47
2019-05-14T23:55:24.265Z,8.32
2019-05-14T23:57:55.999Z,8.36
